Lake Ann, Michigan
Current Conditions -  °F | °C
As of 11:53 AM on Thursday 18 Dec 2014 (Local Time) from KTVC Reporting Station
Overcast Overcast  
Wind Chill: 23°   Ceiling: 1800
Heat Index: 29°   Visibility: 10mi
Dew Point: 23°   Wind: 6mph
Humidity: 78%   Direction: 30°NNE
Pressure: 30.22"   Gusts: NA
Location:  44.72°N, 85.84°W
Report Text: KTVC 181653Z 03005KT 10SM OVC018 M02/M05 A3022 RMK AO2 SLP241 T10171050
Loading
Personal Weather Stations






























Interactive Weather Map New forecast layout! Learn more

10-Day Weather Forecast

Advertisements
Track Severe Weather on mobile